sensor_id;sensor_type;location;lat;lon;timestamp;P1;durP1;ratioP1;P2;durP2;ratioP2
24337;SDS011;12457;50.832;4.346;2023-05-10T00:01:04;0.65;;;0.65;;
24337;SDS011;12457;50.832;4.346;2023-05-10T00:03:30;0.20;;;0.20;;
24337;SDS011;12457;50.832;4.346;2023-05-10T00:05:56;1.15;;;0.65;;
24337;SDS011;12457;50.832;4.346;2023-05-10T00:08:22;0.35;;;0.35;;
24337;SDS011;12457;50.832;4.346;2023-05-10T00:10:47;0.55;;;0.55;;
24337;SDS011;12457;50.832;4.346;2023-05-10T00:13:14;0.43;;;0.43;;
24337;SDS011;12457;50.832;4.346;2023-05-10T00:15:40;0.70;;;0.70;;
24337;SDS011;12457;50.832;4.346;2023-05-10T00:18:05;1.63;;;1.52;;
24337;SDS011;12457;50.832;4.346;2023-05-10T00:20:31;0.32;;;0.32;;
24337;SDS011;12457;50.832;4.346;2023-05-10T00:22:57;0.20;;;0.20;;
24337;SDS011;12457;50.832;4.346;2023-05-10T00:25:22;0.45;;;0.45;;
24337;SDS011;12457;50.832;4.346;2023-05-10T00:27:48;1.23;;;0.85;;
24337;SDS011;12457;50.832;4.346;2023-05-10T00:30:14;2.13;;;1.45;;
24337;SDS011;12457;50.832;4.346;2023-05-10T00:32:40;0.40;;;0.40;;
24337;SDS011;12457;50.832;4.346;2023-05-10T00:35:06;1.23;;;0.77;;
24337;SDS011;12457;50.832;4.346;2023-05-10T00:37:50;0.75;;;0.75;;
24337;SDS011;12457;50.832;4.346;2023-05-10T00:40:16;1.80;;;0.82;;
24337;SDS011;12457;50.832;4.346;2023-05-10T00:42:42;0.40;;;0.40;;
24337;SDS011;12457;50.832;4.346;2023-05-10T00:45:08;0.80;;;0.77;;
24337;SDS011;12457;50.832;4.346;2023-05-10T00:47:34;0.32;;;0.32;;
24337;SDS011;12457;50.832;4.346;2023-05-10T00:50:00;11.70;;;1.38;;
24337;SDS011;12457;50.832;4.346;2023-05-10T00:52:26;0.28;;;0.28;;
24337;SDS011;12457;50.832;4.346;2023-05-10T00:54:53;0.95;;;0.68;;
24337;SDS011;12457;50.832;4.346;2023-05-10T00:57:20;0.32;;;0.32;;
24337;SDS011;12457;50.832;4.346;2023-05-10T00:59:48;0.60;;;0.60;;
24337;SDS011;12457;50.832;4.346;2023-05-10T01:02:14;0.38;;;0.38;;
24337;SDS011;12457;50.832;4.346;2023-05-10T01:04:40;0.55;;;0.55;;
24337;SDS011;12457;50.832;4.346;2023-05-10T01:07:06;0.55;;;0.52;;
24337;SDS011;12457;50.832;4.346;2023-05-10T01:09:32;0.85;;;0.85;;
24337;SDS011;12457;50.832;4.346;2023-05-10T01:11:58;1.10;;;1.02;;
24337;SDS011;12457;50.832;4.346;2023-05-10T01:14:26;0.65;;;0.65;;
24337;SDS011;12457;50.832;4.346;2023-05-10T01:16:52;1.48;;;1.38;;
24337;SDS011;12457;50.832;4.346;2023-05-10T01:19:30;0.32;;;0.32;;
24337;SDS011;12457;50.832;4.346;2023-05-10T01:33:10;2.17;;;1.45;;
24337;SDS011;12457;50.832;4.346;2023-05-10T01:41:14;1.40;;;1.30;;
24337;SDS011;12457;50.832;4.346;2023-05-10T01:44:08;0.68;;;0.65;;
24337;SDS011;12457;50.832;4.346;2023-05-10T01:46:41;0.73;;;0.73;;
24337;SDS011;12457;50.832;4.346;2023-05-10T01:49:26;0.85;;;0.50;;
24337;SDS011;12457;50.832;4.346;2023-05-10T01:52:05;0.60;;;0.40;;
24337;SDS011;12457;50.832;4.346;2023-05-10T01:54:34;11.40;;;0.95;;
24337;SDS011;12457;50.832;4.346;2023-05-10T01:57:03;3.80;;;1.23;;
24337;SDS011;12457;50.832;4.346;2023-05-10T01:59:34;0.40;;;0.40;;
24337;SDS011;12457;50.832;4.346;2023-05-10T02:02:02;1.15;;;1.15;;
24337;SDS011;12457;50.832;4.346;2023-05-10T02:04:29;0.40;;;0.40;;
24337;SDS011;12457;50.832;4.346;2023-05-10T02:06:56;2.60;;;1.33;;
24337;SDS011;12457;50.832;4.346;2023-05-10T02:09:22;2.92;;;0.75;;
24337;SDS011;12457;50.832;4.346;2023-05-10T02:11:50;1.65;;;0.73;;
24337;SDS011;12457;50.832;4.346;2023-05-10T02:14:16;7.13;;;0.85;;
24337;SDS011;12457;50.832;4.346;2023-05-10T02:16:43;1.20;;;1.20;;
24337;SDS011;12457;50.832;4.346;2023-05-10T02:19:11;1.15;;;0.32;;
24337;SDS011;12457;50.832;4.346;2023-05-10T02:21:39;0.55;;;0.50;;
24337;SDS011;12457;50.832;4.346;2023-05-10T02:24:06;0.30;;;0.30;;
24337;SDS011;12457;50.832;4.346;2023-05-10T02:26:34;0.55;;;0.55;;
24337;SDS011;12457;50.832;4.346;2023-05-10T02:29:03;2.95;;;1.25;;
24337;SDS011;12457;50.832;4.346;2023-05-10T02:31:32;0.65;;;0.65;;
24337;SDS011;12457;50.832;4.346;2023-05-10T02:34:00;2.75;;;1.17;;
24337;SDS011;12457;50.832;4.346;2023-05-10T02:36:27;0.22;;;0.22;;
24337;SDS011;12457;50.832;4.346;2023-05-10T02:38:54;2.80;;;1.20;;
24337;SDS011;12457;50.832;4.346;2023-05-10T02:41:21;0.38;;;0.38;;
24337;SDS011;12457;50.832;4.346;2023-05-10T02:43:50;0.70;;;0.70;;
24337;SDS011;12457;50.832;4.346;2023-05-10T02:46:17;0.30;;;0.30;;
24337;SDS011;12457;50.832;4.346;2023-05-10T02:48:43;2.05;;;0.80;;
24337;SDS011;12457;50.832;4.346;2023-05-10T02:51:09;0.20;;;0.20;;
24337;SDS011;12457;50.832;4.346;2023-05-10T02:53:38;0.20;;;0.20;;
24337;SDS011;12457;50.832;4.346;2023-05-10T02:56:07;2.20;;;1.17;;
24337;SDS011;12457;50.832;4.346;2023-05-10T02:58:45;21.13;;;9.73;;
24337;SDS011;12457;50.832;4.346;2023-05-10T03:01:11;23.88;;;10.38;;
24337;SDS011;12457;50.832;4.346;2023-05-10T03:03:37;17.13;;;10.10;;
24337;SDS011;12457;50.832;4.346;2023-05-10T03:06:02;18.40;;;10.13;;
24337;SDS011;12457;50.832;4.346;2023-05-10T03:08:29;26.90;;;10.57;;
24337;SDS011;12457;50.832;4.346;2023-05-10T03:10:59;6.15;;;0.57;;
24337;SDS011;12457;50.832;4.346;2023-05-10T03:13:54;0.30;;;0.30;;
24337;SDS011;12457;50.832;4.346;2023-05-10T03:16:42;2.28;;;1.13;;
24337;SDS011;12457;50.832;4.346;2023-05-10T03:19:20;0.32;;;0.32;;
24337;SDS011;12457;50.832;4.346;2023-05-10T03:21:52;0.40;;;0.40;;
24337;SDS011;12457;50.832;4.346;2023-05-10T03:24:20;1.95;;;0.73;;
24337;SDS011;12457;50.832;4.346;2023-05-10T03:26:47;1.55;;;0.63;;
24337;SDS011;12457;50.832;4.346;2023-05-10T03:29:14;0.30;;;0.30;;
24337;SDS011;12457;50.832;4.346;2023-05-10T03:31:41;0.50;;;0.50;;
24337;SDS011;12457;50.832;4.346;2023-05-10T03:34:07;1.05;;;0.95;;
24337;SDS011;12457;50.832;4.346;2023-05-10T03:36:32;2.17;;;1.38;;
24337;SDS011;12457;50.832;4.346;2023-05-10T03:39:13;0.45;;;0.45;;
24337;SDS011;12457;50.832;4.346;2023-05-10T03:41:39;1.60;;;1.35;;
24337;SDS011;12457;50.832;4.346;2023-05-10T03:44:05;0.68;;;0.68;;
24337;SDS011;12457;50.832;4.346;2023-05-10T03:46:30;0.65;;;0.65;;
24337;SDS011;12457;50.832;4.346;2023-05-10T03:48:56;2.40;;;2.10;;
24337;SDS011;12457;50.832;4.346;2023-05-10T03:51:22;1.00;;;1.00;;
24337;SDS011;12457;50.832;4.346;2023-05-10T03:53:48;0.80;;;0.73;;
24337;SDS011;12457;50.832;4.346;2023-05-10T03:56:14;0.93;;;0.93;;
24337;SDS011;12457;50.832;4.346;2023-05-10T03:58:40;0.60;;;0.45;;
24337;SDS011;12457;50.832;4.346;2023-05-10T04:01:06;1.52;;;1.30;;
24337;SDS011;12457;50.832;4.346;2023-05-10T04:03:32;2.08;;;1.40;;
24337;SDS011;12457;50.832;4.346;2023-05-10T04:06:00;1.25;;;1.15;;
24337;SDS011;12457;50.832;4.346;2023-05-10T04:08:27;0.57;;;0.57;;
24337;SDS011;12457;50.832;4.346;2023-05-10T04:10:53;0.47;;;0.47;;
24337;SDS011;12457;50.832;4.346;2023-05-10T04:13:18;0.20;;;0.20;;
24337;SDS011;12457;50.832;4.346;2023-05-10T04:15:44;2.05;;;1.92;;
24337;SDS011;12457;50.832;4.346;2023-05-10T04:18:10;1.95;;;1.48;;
24337;SDS011;12457;50.832;4.346;2023-05-10T04:20:36;0.63;;;0.63;;
24337;SDS011;12457;50.832;4.346;2023-05-10T04:23:02;0.68;;;0.68;;
24337;SDS011;12457;50.832;4.346;2023-05-10T04:25:28;1.50;;;1.15;;
24337;SDS011;12457;50.832;4.346;2023-05-10T04:27:53;0.35;;;0.35;;
24337;SDS011;12457;50.832;4.346;2023-05-10T04:30:19;1.55;;;0.98;;
24337;SDS011;12457;50.832;4.346;2023-05-10T04:32:45;0.35;;;0.35;;
24337;SDS011;12457;50.832;4.346;2023-05-10T04:35:10;4.18;;;1.52;;
24337;SDS011;12457;50.832;4.346;2023-05-10T04:37:36;2.60;;;1.17;;
24337;SDS011;12457;50.832;4.346;2023-05-10T04:40:02;0.40;;;0.40;;
24337;SDS011;12457;50.832;4.346;2023-05-10T04:42:28;3.30;;;1.33;;
24337;SDS011;12457;50.832;4.346;2023-05-10T04:44:54;2.17;;;0.95;;
24337;SDS011;12457;50.832;4.346;2023-05-10T04:47:20;3.45;;;2.60;;
24337;SDS011;12457;50.832;4.346;2023-05-10T04:49:45;1.50;;;1.40;;
24337;SDS011;12457;50.832;4.346;2023-05-10T04:52:11;9.65;;;0.68;;
24337;SDS011;12457;50.832;4.346;2023-05-10T04:54:37;4.22;;;1.77;;
24337;SDS011;12457;50.832;4.346;2023-05-10T04:57:02;0.40;;;0.40;;
24337;SDS011;12457;50.832;4.346;2023-05-10T04:59:28;0.85;;;0.85;;
24337;SDS011;12457;50.832;4.346;2023-05-10T05:01:54;0.55;;;0.55;;
24337;SDS011;12457;50.832;4.346;2023-05-10T05:04:20;2.00;;;1.75;;
24337;SDS011;12457;50.832;4.346;2023-05-10T05:06:48;1.70;;;1.60;;
24337;SDS011;12457;50.832;4.346;2023-05-10T05:09:14;3.28;;;1.30;;
24337;SDS011;12457;50.832;4.346;2023-05-10T05:11:39;1.55;;;1.25;;
24337;SDS011;12457;50.832;4.346;2023-05-10T05:14:05;0.40;;;0.40;;
24337;SDS011;12457;50.832;4.346;2023-05-10T05:16:31;1.27;;;0.85;;
24337;SDS011;12457;50.832;4.346;2023-05-10T05:18:57;0.52;;;0.50;;
24337;SDS011;12457;50.832;4.346;2023-05-10T05:21:26;0.77;;;0.77;;
24337;SDS011;12457;50.832;4.346;2023-05-10T05:23:52;0.32;;;0.30;;
24337;SDS011;12457;50.832;4.346;2023-05-10T05:26:17;0.82;;;0.57;;
24337;SDS011;12457;50.832;4.346;2023-05-10T05:28:43;0.98;;;0.98;;
24337;SDS011;12457;50.832;4.346;2023-05-10T05:31:10;1.13;;;1.08;;
24337;SDS011;12457;50.832;4.346;2023-05-10T05:33:36;0.77;;;0.77;;
24337;SDS011;12457;50.832;4.346;2023-05-10T05:36:02;8.60;;;1.38;;
24337;SDS011;12457;50.832;4.346;2023-05-10T05:38:29;0.68;;;0.68;;
24337;SDS011;12457;50.832;4.346;2023-05-10T05:40:55;3.83;;;1.30;;
24337;SDS011;12457;50.832;4.346;2023-05-10T05:43:21;0.35;;;0.35;;
24337;SDS011;12457;50.832;4.346;2023-05-10T05:45:47;0.30;;;0.30;;
24337;SDS011;12457;50.832;4.346;2023-05-10T05:48:12;0.50;;;0.50;;
24337;SDS011;12457;50.832;4.346;2023-05-10T05:50:38;0.98;;;0.95;;
24337;SDS011;12457;50.832;4.346;2023-05-10T05:53:04;1.35;;;1.25;;
24337;SDS011;12457;50.832;4.346;2023-05-10T05:58:28;0.68;;;0.63;;
24337;SDS011;12457;50.832;4.346;2023-05-10T06:00:54;0.40;;;0.40;;
24337;SDS011;12457;50.832;4.346;2023-05-10T06:03:20;1.35;;;1.23;;
24337;SDS011;12457;50.832;4.346;2023-05-10T06:05:45;1.13;;;1.05;;
24337;SDS011;12457;50.832;4.346;2023-05-10T06:08:11;0.98;;;0.98;;
24337;SDS011;12457;50.832;4.346;2023-05-10T06:10:37;1.48;;;1.38;;
24337;SDS011;12457;50.832;4.346;2023-05-10T06:13:03;2.65;;;2.35;;
24337;SDS011;12457;50.832;4.346;2023-05-10T06:15:29;0.85;;;0.85;;
24337;SDS011;12457;50.832;4.346;2023-05-10T06:17:54;1.20;;;1.08;;
24337;SDS011;12457;50.832;4.346;2023-05-10T06:20:20;3.05;;;0.50;;
24337;SDS011;12457;50.832;4.346;2023-05-10T06:22:47;2.20;;;1.10;;
24337;SDS011;12457;50.832;4.346;2023-05-10T06:25:13;2.10;;;1.65;;
24337;SDS011;12457;50.832;4.346;2023-05-10T06:27:39;5.50;;;0.82;;
24337;SDS011;12457;50.832;4.346;2023-05-10T06:30:05;12.30;;;2.05;;
24337;SDS011;12457;50.832;4.346;2023-05-10T06:32:33;0.52;;;0.45;;
24337;SDS011;12457;50.832;4.346;2023-05-10T06:34:58;0.60;;;0.60;;
24337;SDS011;12457;50.832;4.346;2023-05-10T06:37:24;0.77;;;0.77;;
24337;SDS011;12457;50.832;4.346;2023-05-10T06:40:05;2.92;;;0.80;;
24337;SDS011;12457;50.832;4.346;2023-05-10T06:42:32;0.57;;;0.57;;
24337;SDS011;12457;50.832;4.346;2023-05-10T06:44:58;0.43;;;0.43;;
24337;SDS011;12457;50.832;4.346;2023-05-10T06:47:23;0.20;;;0.20;;
24337;SDS011;12457;50.832;4.346;2023-05-10T06:49:49;0.43;;;0.43;;
24337;SDS011;12457;50.832;4.346;2023-05-10T06:52:15;0.55;;;0.55;;
24337;SDS011;12457;50.832;4.346;2023-05-10T06:54:41;0.20;;;0.20;;
24337;SDS011;12457;50.832;4.346;2023-05-10T06:57:06;0.40;;;0.40;;
24337;SDS011;12457;50.832;4.346;2023-05-10T06:59:32;4.10;;;1.45;;
24337;SDS011;12457;50.832;4.346;2023-05-10T07:01:58;0.28;;;0.28;;
24337;SDS011;12457;50.832;4.346;2023-05-10T07:04:23;0.75;;;0.75;;
24337;SDS011;12457;50.832;4.346;2023-05-10T07:06:49;0.10;;;0.10;;
24337;SDS011;12457;50.832;4.346;2023-05-10T07:09:15;0.30;;;0.30;;
24337;SDS011;12457;50.832;4.346;2023-05-10T07:11:41;0.43;;;0.40;;
24337;SDS011;12457;50.832;4.346;2023-05-10T07:14:06;0.45;;;0.45;;
24337;SDS011;12457;50.832;4.346;2023-05-10T07:16:32;3.20;;;1.45;;
24337;SDS011;12457;50.832;4.346;2023-05-10T07:18:58;0.20;;;0.20;;
24337;SDS011;12457;50.832;4.346;2023-05-10T07:21:24;0.85;;;0.57;;
24337;SDS011;12457;50.832;4.346;2023-05-10T07:23:49;1.35;;;1.25;;
24337;SDS011;12457;50.832;4.346;2023-05-10T07:26:16;3.28;;;2.25;;
24337;SDS011;12457;50.832;4.346;2023-05-10T07:28:42;0.73;;;0.73;;
24337;SDS011;12457;50.832;4.346;2023-05-10T07:31:07;2.17;;;1.48;;
24337;SDS011;12457;50.832;4.346;2023-05-10T07:33:33;0.40;;;0.40;;
24337;SDS011;12457;50.832;4.346;2023-05-10T07:35:59;0.30;;;0.30;;
24337;SDS011;12457;50.832;4.346;2023-05-10T07:38:25;0.57;;;0.57;;
24337;SDS011;12457;50.832;4.346;2023-05-10T07:40:52;0.30;;;0.30;;
24337;SDS011;12457;50.832;4.346;2023-05-10T07:43:17;0.30;;;0.30;;
24337;SDS011;12457;50.832;4.346;2023-05-10T07:45:43;3.88;;;1.42;;
24337;SDS011;12457;50.832;4.346;2023-05-10T07:48:09;1.55;;;0.63;;
24337;SDS011;12457;50.832;4.346;2023-05-10T07:50:34;0.25;;;0.25;;
24337;SDS011;12457;50.832;4.346;2023-05-10T07:53:00;0.43;;;0.43;;
24337;SDS011;12457;50.832;4.346;2023-05-10T07:55:38;0.20;;;0.20;;
24337;SDS011;12457;50.832;4.346;2023-05-10T07:58:04;0.20;;;0.20;;
24337;SDS011;12457;50.832;4.346;2023-05-10T08:00:30;0.40;;;0.40;;
24337;SDS011;12457;50.832;4.346;2023-05-10T08:02:55;0.73;;;0.40;;
24337;SDS011;12457;50.832;4.346;2023-05-10T08:05:21;0.30;;;0.30;;
24337;SDS011;12457;50.832;4.346;2023-05-10T08:07:47;0.25;;;0.25;;
24337;SDS011;12457;50.832;4.346;2023-05-10T08:10:21;0.20;;;0.20;;
24337;SDS011;12457;50.832;4.346;2023-05-10T08:12:47;0.30;;;0.30;;
24337;SDS011;12457;50.832;4.346;2023-05-10T08:15:13;0.55;;;0.55;;
24337;SDS011;12457;50.832;4.346;2023-05-10T08:17:38;0.68;;;0.68;;
24337;SDS011;12457;50.832;4.346;2023-05-10T08:20:04;1.23;;;0.75;;
24337;SDS011;12457;50.832;4.346;2023-05-10T08:22:30;0.38;;;0.38;;
24337;SDS011;12457;50.832;4.346;2023-05-10T08:24:56;4.57;;;1.95;;
24337;SDS011;12457;50.832;4.346;2023-05-10T08:27:21;0.65;;;0.65;;
24337;SDS011;12457;50.832;4.346;2023-05-10T08:29:47;0.20;;;0.20;;
24337;SDS011;12457;50.832;4.346;2023-05-10T08:32:13;0.10;;;0.10;;
24337;SDS011;12457;50.832;4.346;2023-05-10T08:34:39;0.52;;;0.52;;
24337;SDS011;12457;50.832;4.346;2023-05-10T08:37:05;0.20;;;0.20;;
24337;SDS011;12457;50.832;4.346;2023-05-10T08:39:33;0.25;;;0.25;;
24337;SDS011;12457;50.832;4.346;2023-05-10T08:42:01;5.40;;;1.17;;
24337;SDS011;12457;50.832;4.346;2023-05-10T08:44:29;0.80;;;0.80;;
24337;SDS011;12457;50.832;4.346;2023-05-10T08:46:57;1.95;;;1.35;;
24337;SDS011;12457;50.832;4.346;2023-05-10T08:49:27;2.17;;;1.35;;
24337;SDS011;12457;50.832;4.346;2023-05-10T08:51:57;0.10;;;0.10;;
24337;SDS011;12457;50.832;4.346;2023-05-10T08:54:28;0.52;;;0.52;;
24337;SDS011;12457;50.832;4.346;2023-05-10T08:56:55;0.13;;;0.13;;
24337;SDS011;12457;50.832;4.346;2023-05-10T08:59:22;3.30;;;0.57;;
24337;SDS011;12457;50.832;4.346;2023-05-10T09:01:47;1.75;;;0.93;;
24337;SDS011;12457;50.832;4.346;2023-05-10T09:04:16;0.60;;;0.52;;
24337;SDS011;12457;50.832;4.346;2023-05-10T09:06:41;17.48;;;8.68;;
24337;SDS011;12457;50.832;4.346;2023-05-10T09:09:07;14.10;;;6.82;;
24337;SDS011;12457;50.832;4.346;2023-05-10T09:11:33;9.60;;;5.72;;
24337;SDS011;12457;50.832;4.346;2023-05-10T09:14:00;10.05;;;6.72;;
24337;SDS011;12457;50.832;4.346;2023-05-10T09:16:27;11.38;;;7.28;;
24337;SDS011;12457;50.832;4.346;2023-05-10T09:18:53;12.20;;;6.65;;
24337;SDS011;12457;50.832;4.346;2023-05-10T09:21:19;10.82;;;6.55;;
24337;SDS011;12457;50.832;4.346;2023-05-10T09:23:45;13.27;;;7.35;;
24337;SDS011;12457;50.832;4.346;2023-05-10T09:29:14;13.88;;;7.55;;
24337;SDS011;12457;50.832;4.346;2023-05-10T09:31:57;10.48;;;6.10;;
24337;SDS011;12457;50.832;4.346;2023-05-10T09:34:30;11.88;;;7.18;;
24337;SDS011;12457;50.832;4.346;2023-05-10T09:36:58;20.15;;;11.23;;
24337;SDS011;12457;50.832;4.346;2023-05-10T09:39:36;11.88;;;7.50;;
24337;SDS011;12457;50.832;4.346;2023-05-10T09:42:03;0.22;;;0.22;;
24337;SDS011;12457;50.832;4.346;2023-05-10T09:44:31;0.50;;;0.50;;
24337;SDS011;12457;50.832;4.346;2023-05-10T09:46:58;8.82;;;0.63;;
24337;SDS011;12457;50.832;4.346;2023-05-10T09:49:24;0.50;;;0.50;;
24337;SDS011;12457;50.832;4.346;2023-05-10T09:54:28;0.25;;;0.25;;
24337;SDS011;12457;50.832;4.346;2023-05-10T09:56:54;0.30;;;0.30;;
24337;SDS011;12457;50.832;4.346;2023-05-10T09:59:20;0.30;;;0.30;;
24337;SDS011;12457;50.832;4.346;2023-05-10T10:01:50;0.45;;;0.45;;
24337;SDS011;12457;50.832;4.346;2023-05-10T10:04:16;0.28;;;0.28;;
24337;SDS011;12457;50.832;4.346;2023-05-10T10:06:42;0.70;;;0.70;;
24337;SDS011;12457;50.832;4.346;2023-05-10T10:09:08;0.20;;;0.20;;
24337;SDS011;12457;50.832;4.346;2023-05-10T10:11:35;0.20;;;0.20;;
24337;SDS011;12457;50.832;4.346;2023-05-10T10:14:02;0.47;;;0.38;;
24337;SDS011;12457;50.832;4.346;2023-05-10T10:16:31;0.45;;;0.45;;
24337;SDS011;12457;50.832;4.346;2023-05-10T10:18:57;0.52;;;0.52;;
24337;SDS011;12457;50.832;4.346;2023-05-10T10:21:23;0.32;;;0.32;;
24337;SDS011;12457;50.832;4.346;2023-05-10T10:23:50;0.20;;;0.20;;
24337;SDS011;12457;50.832;4.346;2023-05-10T10:26:23;0.17;;;0.17;;
24337;SDS011;12457;50.832;4.346;2023-05-10T10:34:32;0.28;;;0.28;;
24337;SDS011;12457;50.832;4.346;2023-05-10T10:36:58;0.20;;;0.20;;
24337;SDS011;12457;50.832;4.346;2023-05-10T10:39:29;1.40;;;1.17;;
24337;SDS011;12457;50.832;4.346;2023-05-10T10:41:56;0.17;;;0.17;;
24337;SDS011;12457;50.832;4.346;2023-05-10T10:54:58;0.13;;;0.13;;
24337;SDS011;12457;50.832;4.346;2023-05-10T10:57:26;0.45;;;0.45;;
24337;SDS011;12457;50.832;4.346;2023-05-10T11:05:25;0.10;;;0.10;;
24337;SDS011;12457;50.832;4.346;2023-05-10T11:07:57;0.15;;;0.15;;
24337;SDS011;12457;50.832;4.346;2023-05-10T11:10:25;0.38;;;0.38;;
24337;SDS011;12457;50.832;4.346;2023-05-10T11:15:39;0.35;;;0.35;;
24337;SDS011;12457;50.832;4.346;2023-05-10T11:18:16;0.35;;;0.35;;
24337;SDS011;12457;50.832;4.346;2023-05-10T11:23:20;0.30;;;0.30;;
24337;SDS011;12457;50.832;4.346;2023-05-10T11:25:47;1.23;;;0.88;;
24337;SDS011;12457;50.832;4.346;2023-05-10T11:28:13;0.63;;;0.63;;
24337;SDS011;12457;50.832;4.346;2023-05-10T11:30:42;0.47;;;0.40;;
24337;SDS011;12457;50.832;4.346;2023-05-10T11:33:09;0.70;;;0.70;;
24337;SDS011;12457;50.832;4.346;2023-05-10T11:35:40;0.25;;;0.25;;
24337;SDS011;12457;50.832;4.346;2023-05-10T11:38:09;2.60;;;0.88;;
24337;SDS011;12457;50.832;4.346;2023-05-10T11:40:36;2.90;;;0.65;;
24337;SDS011;12457;50.832;4.346;2023-05-10T11:43:15;1.77;;;0.95;;
24337;SDS011;12457;50.832;4.346;2023-05-10T11:45:42;4.70;;;1.20;;
24337;SDS011;12457;50.832;4.346;2023-05-10T11:48:10;0.28;;;0.28;;
24337;SDS011;12457;50.832;4.346;2023-05-10T11:50:35;0.75;;;0.45;;
24337;SDS011;12457;50.832;4.346;2023-05-10T11:53:01;7.30;;;0.50;;
24337;SDS011;12457;50.832;4.346;2023-05-10T11:55:27;0.40;;;0.40;;
24337;SDS011;12457;50.832;4.346;2023-05-10T11:58:00;1.00;;;0.95;;
24337;SDS011;12457;50.832;4.346;2023-05-10T12:00:27;0.43;;;0.43;;
24337;SDS011;12457;50.832;4.346;2023-05-10T12:02:53;0.50;;;0.50;;
24337;SDS011;12457;50.832;4.346;2023-05-10T12:05:19;0.08;;;0.08;;
24337;SDS011;12457;50.832;4.346;2023-05-10T12:07:45;0.95;;;0.70;;
24337;SDS011;12457;50.832;4.346;2023-05-10T12:10:12;1.58;;;1.48;;
24337;SDS011;12457;50.832;4.346;2023-05-10T12:12:46;0.68;;;0.65;;
24337;SDS011;12457;50.832;4.346;2023-05-10T12:15:20;0.60;;;0.60;;
24337;SDS011;12457;50.832;4.346;2023-05-10T12:17:47;1.45;;;0.75;;
24337;SDS011;12457;50.832;4.346;2023-05-10T12:20:17;0.98;;;0.65;;
24337;SDS011;12457;50.832;4.346;2023-05-10T12:22:45;9.25;;;6.82;;
24337;SDS011;12457;50.832;4.346;2023-05-10T12:25:12;12.38;;;6.00;;
24337;SDS011;12457;50.832;4.346;2023-05-10T12:27:38;10.75;;;5.82;;
24337;SDS011;12457;50.832;4.346;2023-05-10T12:30:04;20.05;;;13.77;;
24337;SDS011;12457;50.832;4.346;2023-05-10T12:32:43;16.98;;;10.63;;
24337;SDS011;12457;50.832;4.346;2023-05-10T12:35:15;11.20;;;7.57;;
24337;SDS011;12457;50.832;4.346;2023-05-10T12:37:43;10.07;;;7.15;;
24337;SDS011;12457;50.832;4.346;2023-05-10T12:40:09;10.32;;;6.53;;
24337;SDS011;12457;50.832;4.346;2023-05-10T12:42:38;12.40;;;7.05;;
24337;SDS011;12457;50.832;4.346;2023-05-10T12:45:05;9.05;;;6.28;;
24337;SDS011;12457;50.832;4.346;2023-05-10T12:47:32;10.18;;;5.93;;
24337;SDS011;12457;50.832;4.346;2023-05-10T12:49:59;8.48;;;5.28;;
24337;SDS011;12457;50.832;4.346;2023-05-10T12:52:25;6.95;;;5.30;;
24337;SDS011;12457;50.832;4.346;2023-05-10T12:54:52;7.13;;;5.20;;
24337;SDS011;12457;50.832;4.346;2023-05-10T12:57:27;9.15;;;5.70;;
24337;SDS011;12457;50.832;4.346;2023-05-10T12:59:53;7.72;;;5.25;;
24337;SDS011;12457;50.832;4.346;2023-05-10T13:02:20;7.45;;;5.07;;
24337;SDS011;12457;50.832;4.346;2023-05-10T13:04:47;7.40;;;4.65;;
24337;SDS011;12457;50.832;4.346;2023-05-10T13:07:13;8.18;;;4.60;;
24337;SDS011;12457;50.832;4.346;2023-05-10T13:09:39;5.22;;;3.90;;
24337;SDS011;12457;50.832;4.346;2023-05-10T13:12:05;12.68;;;7.88;;
24337;SDS011;12457;50.832;4.346;2023-05-10T13:14:31;6.10;;;3.67;;
24337;SDS011;12457;50.832;4.346;2023-05-10T13:16:57;7.25;;;3.80;;
24337;SDS011;12457;50.832;4.346;2023-05-10T13:19:23;5.97;;;4.00;;
24337;SDS011;12457;50.832;4.346;2023-05-10T13:21:49;9.52;;;4.82;;
24337;SDS011;12457;50.832;4.346;2023-05-10T13:24:15;6.30;;;4.45;;
24337;SDS011;12457;50.832;4.346;2023-05-10T13:26:42;9.32;;;5.20;;
24337;SDS011;12457;50.832;4.346;2023-05-10T13:31:58;11.27;;;5.55;;
24337;SDS011;12457;50.832;4.346;2023-05-10T13:34:24;10.75;;;6.53;;
24337;SDS011;12457;50.832;4.346;2023-05-10T13:36:50;9.80;;;5.63;;
24337;SDS011;12457;50.832;4.346;2023-05-10T13:39:16;12.23;;;6.00;;
24337;SDS011;12457;50.832;4.346;2023-05-10T13:41:42;11.10;;;5.50;;
24337;SDS011;12457;50.832;4.346;2023-05-10T13:44:13;9.88;;;5.00;;
24337;SDS011;12457;50.832;4.346;2023-05-10T13:46:40;10.63;;;5.97;;
24337;SDS011;12457;50.832;4.346;2023-05-10T13:49:08;12.98;;;6.97;;
24337;SDS011;12457;50.832;4.346;2023-05-10T13:51:35;8.75;;;6.20;;
24337;SDS011;12457;50.832;4.346;2023-05-10T13:54:03;9.93;;;6.85;;
24337;SDS011;12457;50.832;4.346;2023-05-10T13:56:30;8.48;;;6.43;;
24337;SDS011;12457;50.832;4.346;2023-05-10T13:58:56;9.70;;;6.20;;
24337;SDS011;12457;50.832;4.346;2023-05-10T14:01:23;11.32;;;8.02;;
24337;SDS011;12457;50.832;4.346;2023-05-10T14:03:49;13.02;;;7.53;;
24337;SDS011;12457;50.832;4.346;2023-05-10T14:06:14;10.52;;;6.93;;
24337;SDS011;12457;50.832;4.346;2023-05-10T14:08:40;11.68;;;7.25;;
24337;SDS011;12457;50.832;4.346;2023-05-10T14:11:06;16.10;;;8.77;;
24337;SDS011;12457;50.832;4.346;2023-05-10T14:13:32;14.20;;;8.50;;
24337;SDS011;12457;50.832;4.346;2023-05-10T14:15:58;12.90;;;8.95;;
24337;SDS011;12457;50.832;4.346;2023-05-10T14:18:26;12.50;;;8.55;;
24337;SDS011;12457;50.832;4.346;2023-05-10T14:20:52;14.27;;;8.50;;
24337;SDS011;12457;50.832;4.346;2023-05-10T14:23:17;12.23;;;8.95;;
24337;SDS011;12457;50.832;4.346;2023-05-10T14:25:48;11.75;;;8.25;;
24337;SDS011;12457;50.832;4.346;2023-05-10T14:28:14;11.13;;;7.80;;
24337;SDS011;12457;50.832;4.346;2023-05-10T14:30:40;17.13;;;8.15;;
24337;SDS011;12457;50.832;4.346;2023-05-10T14:33:06;13.43;;;6.88;;
24337;SDS011;12457;50.832;4.346;2023-05-10T14:35:32;13.50;;;7.68;;
24337;SDS011;12457;50.832;4.346;2023-05-10T14:37:58;13.15;;;7.57;;
24337;SDS011;12457;50.832;4.346;2023-05-10T14:40:24;13.43;;;7.82;;
24337;SDS011;12457;50.832;4.346;2023-05-10T14:42:55;16.63;;;8.38;;
24337;SDS011;12457;50.832;4.346;2023-05-10T14:45:22;14.10;;;8.35;;
24337;SDS011;12457;50.832;4.346;2023-05-10T14:47:48;18.30;;;9.23;;
24337;SDS011;12457;50.832;4.346;2023-05-10T14:50:15;15.93;;;8.90;;
24337;SDS011;12457;50.832;4.346;2023-05-10T14:52:44;15.13;;;8.95;;
24337;SDS011;12457;50.832;4.346;2023-05-10T14:55:09;13.20;;;9.15;;
24337;SDS011;12457;50.832;4.346;2023-05-10T14:57:35;14.35;;;8.23;;
24337;SDS011;12457;50.832;4.346;2023-05-10T15:00:02;16.02;;;8.93;;
24337;SDS011;12457;50.832;4.346;2023-05-10T15:02:28;19.70;;;10.68;;
24337;SDS011;12457;50.832;4.346;2023-05-10T15:04:55;18.52;;;10.20;;
24337;SDS011;12457;50.832;4.346;2023-05-10T15:07:23;12.73;;;7.53;;
24337;SDS011;12457;50.832;4.346;2023-05-10T15:09:49;13.77;;;7.63;;
24337;SDS011;12457;50.832;4.346;2023-05-10T15:12:16;10.27;;;5.78;;
24337;SDS011;12457;50.832;4.346;2023-05-10T15:14:48;11.02;;;6.15;;
24337;SDS011;12457;50.832;4.346;2023-05-10T15:17:14;8.35;;;5.28;;
24337;SDS011;12457;50.832;4.346;2023-05-10T15:19:41;12.23;;;6.07;;
24337;SDS011;12457;50.832;4.346;2023-05-10T15:22:07;12.43;;;5.30;;
24337;SDS011;12457;50.832;4.346;2023-05-10T15:24:32;8.95;;;4.88;;
24337;SDS011;12457;50.832;4.346;2023-05-10T15:26:59;10.30;;;4.53;;
24337;SDS011;12457;50.832;4.346;2023-05-10T15:29:26;7.53;;;4.57;;
24337;SDS011;12457;50.832;4.346;2023-05-10T15:31:56;6.13;;;2.88;;
24337;SDS011;12457;50.832;4.346;2023-05-10T15:34:23;6.63;;;3.15;;
24337;SDS011;12457;50.832;4.346;2023-05-10T15:36:52;9.60;;;3.47;;
24337;SDS011;12457;50.832;4.346;2023-05-10T15:39:18;8.07;;;3.17;;
24337;SDS011;12457;50.832;4.346;2023-05-10T15:41:43;7.95;;;3.50;;